Time;durP1;ratioP1;P1;durP2;ratioP2;P2;SDS_P1;SDS_P2;PMS_P1;PMS_P2;Temp;Humidity;BMP_temperature;BMP_pressure;BME280_temperature;BME280_humidity;BME280_pressure;Samples;Min_cycle;Max_cycle;Signal;HPM_P1;HPM_P2
2023/01/13 00:00:45;;;;;;;7.97;3.20;;;;;;;;;;4992347;28;20488;-39
2023/01/13 00:03:11;;;;;;;7.40;2.65;;;;;;;;;;4992292;28;20037;-39
2023/01/13 00:05:36;;;;;;;8.00;3.58;;;;;;;;;;4990805;28;20520;-42
2023/01/13 00:08:04;;;;;;;11.10;4.80;;;;;;;;;;4992138;28;20519;-39
2023/01/13 00:10:29;;;;;;;14.35;4.55;;;;;;;;;;4992017;28;20473;-39
2023/01/13 00:12:55;;;;;;;3.67;2.97;;;;;;;;;;4992212;28;20046;-39
2023/01/13 00:15:20;;;;;;;8.45;2.80;;;;;;;;;;4992221;28;20026;-39
2023/01/13 00:17:47;;;;;;;5.50;3.80;;;;;;;;;;4990881;28;20038;-39
2023/01/13 00:20:13;;;;;;;4.70;3.20;;;;;;;;;;4991851;28;20034;-39
2023/01/13 00:22:38;;;;;;;5.88;3.58;;;;;;;;;;4992206;28;20034;-39
2023/01/13 00:25:05;;;;;;;6.30;3.55;;;;;;;;;;4992004;28;20384;-39
2023/01/13 00:27:30;;;;;;;7.95;3.15;;;;;;;;;;4991872;28;20026;-39
2023/01/13 00:29:56;;;;;;;7.82;3.42;;;;;;;;;;4991925;28;20022;-38
2023/01/13 00:32:21;;;;;;;4.13;3.00;;;;;;;;;;4991967;28;20034;-39
2023/01/13 00:34:47;;;;;;;7.82;3.70;;;;;;;;;;4991820;28;20018;-39
2023/01/13 00:37:13;;;;;;;9.43;4.18;;;;;;;;;;4992121;28;20092;-39
2023/01/13 00:39:41;;;;;;;9.52;4.25;;;;;;;;;;4991816;28;20047;-39
2023/01/13 00:44:51;;;;;;;8.30;3.83;;;;;;;;;;4991832;28;20042;-39
2023/01/13 00:47:17;;;;;;;5.88;3.15;;;;;;;;;;4991704;28;20129;-38
2023/01/13 00:49:43;;;;;;;11.18;3.13;;;;;;;;;;4991810;28;20029;-39
2023/01/13 00:52:09;;;;;;;10.13;4.70;;;;;;;;;;4991708;28;20133;-39
2023/01/13 00:54:35;;;;;;;9.77;3.47;;;;;;;;;;4992042;28;20361;-39
2023/01/13 00:57:00;;;;;;;13.55;4.07;;;;;;;;;;4991738;28;20029;-39
2023/01/13 00:59:25;;;;;;;12.10;4.28;;;;;;;;;;4991660;28;20473;-39
2023/01/13 01:01:51;;;;;;;5.90;2.97;;;;;;;;;;4991850;28;20472;-39
2023/01/13 01:04:16;;;;;;;10.52;3.53;;;;;;;;;;4994594;28;20121;-38
2023/01/13 01:06:42;;;;;;;4.25;1.58;;;;;;;;;;4995327;28;20094;-38
2023/01/13 01:09:07;;;;;;;9.00;2.67;;;;;;;;;;4995212;28;20396;-38
2023/01/13 01:11:32;;;;;;;4.82;2.35;;;;;;;;;;4995158;28;20106;-38
2023/01/13 01:13:59;;;;;;;3.42;2.60;;;;;;;;;;4995189;28;20038;-38
2023/01/13 01:16:26;;;;;;;4.05;2.33;;;;;;;;;;4995112;28;20018;-39
2023/01/13 01:18:52;;;;;;;4.90;2.88;;;;;;;;;;4995143;28;20523;-39
2023/01/13 01:21:18;;;;;;;4.88;2.22;;;;;;;;;;4995280;28;20026;-38
2023/01/13 01:23:43;;;;;;;6.70;2.80;;;;;;;;;;4994887;28;20547;-39
2023/01/13 01:26:16;;;;;;;6.00;2.15;;;;;;;;;;4995024;28;20074;-38
2023/01/13 01:28:41;;;;;;;7.05;1.80;;;;;;;;;;4995017;28;20027;-39
2023/01/13 01:31:08;;;;;;;5.53;1.92;;;;;;;;;;4994907;28;20511;-39
2023/01/13 01:33:33;;;;;;;6.35;2.15;;;;;;;;;;4994733;28;20034;-38
2023/01/13 01:35:59;;;;;;;6.93;2.38;;;;;;;;;;4995117;28;20415;-39
2023/01/13 01:38:25;;;;;;;7.18;2.20;;;;;;;;;;4994943;28;20033;-40
2023/01/13 01:40:50;;;;;;;4.43;2.60;;;;;;;;;;4995023;28;20365;-39
2023/01/13 01:46:00;;;;;;;2.78;1.88;;;;;;;;;;4994535;28;20201;-39
2023/01/13 01:48:31;;;;;;;3.53;2.42;;;;;;;;;;4994596;28;20544;-39
2023/01/13 01:50:57;;;;;;;2.38;1.60;;;;;;;;;;4994777;28;20037;-39
2023/01/13 01:53:24;;;;;;;2.20;1.73;;;;;;;;;;4992941;28;20034;-38
2023/01/13 01:55:50;;;;;;;5.65;3.92;;;;;;;;;;4994493;28;20027;-39
2023/01/13 01:58:27;;;;;;;4.50;2.35;;;;;;;;;;4994258;28;20033;-39
2023/01/13 02:00:53;;;;;;;3.83;2.15;;;;;;;;;;4994706;28;20388;-38
2023/01/13 02:03:18;;;;;;;6.72;2.20;;;;;;;;;;4994171;28;20023;-39
2023/01/13 02:05:45;;;;;;;3.38;1.70;;;;;;;;;;4994480;28;20061;-39
2023/01/13 02:08:11;;;;;;;2.80;1.60;;;;;;;;;;4994360;28;20030;-39
2023/01/13 02:10:38;;;;;;;2.83;1.30;;;;;;;;;;4994240;28;20461;-38
2023/01/13 02:13:05;;;;;;;2.22;1.58;;;;;;;;;;4993832;28;20034;-39
2023/01/13 02:15:30;;;;;;;2.47;1.27;;;;;;;;;;4993743;28;20034;-39
2023/01/13 02:18:04;;;;;;;3.88;1.60;;;;;;;;;;4994121;28;20018;-39
2023/01/13 02:20:29;;;;;;;5.65;1.92;;;;;;;;;;4993819;28;20034;-38
2023/01/13 02:24:52;;;;;;;4.10;2.22;;;;;;;;;;4994193;28;20026;-38
2023/01/13 02:26:19;;;;;;;4.55;2.35;;;;;;;;;;4991698;28;20118;-39
2023/01/13 02:31:41;;;;;;;6.03;2.08;;;;;;;;;;4992539;28;20042;-38
2023/01/13 02:34:16;;;;;;;2.88;1.75;;;;;;;;;;4993665;28;20044;-39
2023/01/13 02:36:44;;;;;;;3.20;1.50;;;;;;;;;;4993698;28;20429;-39
2023/01/13 02:39:29;;;;;;;2.97;1.40;;;;;;;;;;4993920;28;20383;-39
2023/01/13 02:44:54;;;;;;;3.25;1.73;;;;;;;;;;4993471;28;20046;-39
2023/01/13 02:47:21;;;;;;;6.43;1.60;;;;;;;;;;4993451;28;20034;-39
2023/01/13 02:49:48;;;;;;;4.03;1.38;;;;;;;;;;4992101;28;20137;-38
2023/01/13 02:52:21;;;;;;;4.10;1.80;;;;;;;;;;4993177;28;20030;-39
2023/01/13 02:54:49;;;;;;;3.83;2.50;;;;;;;;;;4993390;28;20026;-39
2023/01/13 02:57:16;;;;;;;2.90;1.77;;;;;;;;;;4993209;28;20279;-39
2023/01/13 02:59:41;;;;;;;4.70;2.30;;;;;;;;;;4993313;28;20109;-39
2023/01/13 03:02:08;;;;;;;4.22;2.88;;;;;;;;;;4993165;28;20544;-39
2023/01/13 03:04:43;;;;;;;6.07;2.00;;;;;;;;;;4991840;28;20109;-39
2023/01/13 03:07:16;;;;;;;4.15;2.35;;;;;;;;;;4993385;28;20026;-38
2023/01/13 03:09:44;;;;;;;2.17;1.88;;;;;;;;;;4993309;28;20060;-39
2023/01/13 03:12:14;;;;;;;2.22;1.45;;;;;;;;;;4992992;28;20018;-38
2023/01/13 03:14:43;;;;;;;3.95;1.80;;;;;;;;;;4993040;28;20156;-39
2023/01/13 03:17:11;;;;;;;6.07;2.55;;;;;;;;;;4992851;28;20023;-39
2023/01/13 03:19:37;;;;;;;4.75;2.00;;;;;;;;;;4993189;28;20034;-39
2023/01/13 03:22:02;;;;;;;4.20;2.38;;;;;;;;;;4992868;28;20025;-38
2023/01/13 03:24:33;;;;;;;3.90;2.00;;;;;;;;;;4992529;28;20044;-39
2023/01/13 03:26:59;;;;;;;4.07;2.78;;;;;;;;;;4992381;28;20081;-39
2023/01/13 03:29:34;;;;;;;11.77;2.47;;;;;;;;;;4992606;28;20034;-39
2023/01/13 03:32:18;;;;;;;4.35;2.00;;;;;;;;;;4992475;28;20500;-38
2023/01/13 03:34:51;;;;;;;3.88;2.03;;;;;;;;;;4992736;28;20061;-39
2023/01/13 03:37:19;;;;;;;7.03;2.83;;;;;;;;;;4992753;28;20057;-39
2023/01/13 03:39:50;;;;;;;3.65;2.72;;;;;;;;;;4992496;28;20495;-39
2023/01/13 03:42:20;;;;;;;2.65;1.77;;;;;;;;;;4992701;28;20034;-38
2023/01/13 03:44:49;;;;;;;3.13;2.03;;;;;;;;;;4992258;28;20046;-38
2023/01/13 03:47:19;;;;;;;7.22;2.00;;;;;;;;;;4992345;28;20404;-39
2023/01/13 03:49:48;;;;;;;4.72;2.00;;;;;;;;;;4992695;28;20396;-38
2023/01/13 03:52:20;;;;;;;6.55;2.78;;;;;;;;;;4992294;28;20100;-38
2023/01/13 03:54:48;;;;;;;4.45;2.55;;;;;;;;;;4992392;28;20054;-39
2023/01/13 03:57:16;;;;;;;4.15;2.20;;;;;;;;;;4992154;28;20026;-38
2023/01/13 03:59:44;;;;;;;3.05;1.80;;;;;;;;;;4991280;28;20398;-38
2023/01/13 04:02:38;;;;;;;3.05;2.47;;;;;;;;;;4992253;28;20081;-38
2023/01/13 04:05:07;;;;;;;4.35;2.22;;;;;;;;;;4979291;28;20068;-38
2023/01/13 04:07:44;;;;;;;13.68;2.58;;;;;;;;;;4992036;28;20599;-39
2023/01/13 04:10:10;;;;;;;4.45;2.13;;;;;;;;;;4992196;28;20096;-40
2023/01/13 04:13:00;;;;;;;4.35;1.85;;;;;;;;;;4992186;28;20034;-39
2023/01/13 04:15:27;;;;;;;4.95;1.92;;;;;;;;;;4992346;28;20417;-39
2023/01/13 04:17:53;;;;;;;5.15;2.65;;;;;;;;;;4992388;28;20376;-39
2023/01/13 04:20:18;;;;;;;2.13;1.50;;;;;;;;;;4991897;28;20117;-39
2023/01/13 04:22:44;;;;;;;4.72;1.83;;;;;;;;;;4992079;28;20022;-39
2023/01/13 04:25:10;;;;;;;3.33;1.83;;;;;;;;;;4992121;28;20030;-39
2023/01/13 04:27:35;;;;;;;5.72;3.45;;;;;;;;;;4992183;28;20022;-39
2023/01/13 04:30:00;;;;;;;2.70;1.63;;;;;;;;;;4991068;28;20089;-38
2023/01/13 04:32:26;;;;;;;7.28;2.33;;;;;;;;;;4991725;28;20043;-38
2023/01/13 04:34:51;;;;;;;2.00;1.20;;;;;;;;;;4991919;28;20028;-38
2023/01/13 04:37:17;;;;;;;3.35;1.45;;;;;;;;;;4993424;28;20061;-39
2023/01/13 04:39:42;;;;;;;2.45;1.50;;;;;;;;;;4996212;28;20026;-38
2023/01/13 04:42:07;;;;;;;3.50;1.90;;;;;;;;;;4995702;28;20468;-39
2023/01/13 04:44:34;;;;;;;3.45;1.55;;;;;;;;;;4995742;28;20050;-38
2023/01/13 04:47:03;;;;;;;1.85;1.33;;;;;;;;;;4995737;28;20038;-38
2023/01/13 04:49:28;;;;;;;4.40;2.25;;;;;;;;;;4995509;28;20030;-39
2023/01/13 04:51:53;;;;;;;3.95;1.80;;;;;;;;;;4995671;28;20027;-39
2023/01/13 04:54:19;;;;;;;2.20;1.50;;;;;;;;;;4995525;28;20031;-39
2023/01/13 04:56:44;;;;;;;3.70;1.98;;;;;;;;;;4995555;28;20346;-38
2023/01/13 04:59:10;;;;;;;4.47;2.03;;;;;;;;;;4995584;28;20045;-39
2023/01/13 05:01:36;;;;;;;2.97;2.30;;;;;;;;;;4995436;28;20373;-38
2023/01/13 05:04:02;;;;;;;3.85;2.38;;;;;;;;;;4995566;28;20053;-38
2023/01/13 05:06:28;;;;;;;1.13;1.10;;;;;;;;;;4995562;28;20023;-39
2023/01/13 05:08:53;;;;;;;6.50;2.10;;;;;;;;;;4995407;28;20037;-39
2023/01/13 05:17:01;;;;;;;3.65;1.85;;;;;;;;;;4995217;28;20034;-38
2023/01/13 05:19:30;;;;;;;3.75;1.65;;;;;;;;;;4995335;28;20113;-39
2023/01/13 05:27:24;;;;;;;3.55;1.58;;;;;;;;;;4994971;28;20114;-39
2023/01/13 05:29:50;;;;;;;2.45;1.45;;;;;;;;;;4995040;28;20101;-39
2023/01/13 05:32:15;;;;;;;3.42;1.35;;;;;;;;;;4994631;28;20121;-38
2023/01/13 05:34:41;;;;;;;3.63;1.40;;;;;;;;;;4994867;28;20026;-39
2023/01/13 05:37:07;;;;;;;1.75;1.55;;;;;;;;;;4995128;28;20038;-39
2023/01/13 05:43:18;;;;;;;3.17;1.55;;;;;;;;;;4993377;28;20603;-39
2023/01/13 05:45:02;;;;;;;2.45;1.48;;;;;;;;;;4994667;28;20046;-39
2023/01/13 05:47:27;;;;;;;1.35;0.90;;;;;;;;;;4994730;28;20527;-38
2023/01/13 05:49:52;;;;;;;2.00;1.27;;;;;;;;;;4993762;28;20120;-38
2023/01/13 05:52:18;;;;;;;0.93;0.77;;;;;;;;;;4994588;28;20168;-39
2023/01/13 05:54:43;;;;;;;2.38;0.70;;;;;;;;;;4994975;28;20518;-40
2023/01/13 05:57:09;;;;;;;1.20;0.80;;;;;;;;;;4994821;28;20030;-39
2023/01/13 05:59:34;;;;;;;3.25;1.33;;;;;;;;;;4994653;28;20026;-39
2023/01/13 06:01:59;;;;;;;2.50;0.85;;;;;;;;;;4994512;28;20045;-39
2023/01/13 06:04:25;;;;;;;0.70;0.70;;;;;;;;;;4994265;28;20124;-38
2023/01/13 06:06:50;;;;;;;1.25;0.75;;;;;;;;;;4994312;28;20019;-39
2023/01/13 06:09:16;;;;;;;0.95;0.60;;;;;;;;;;4994418;28;20172;-38
2023/01/13 06:11:41;;;;;;;2.67;0.95;;;;;;;;;;4994386;28;20049;-38
2023/01/13 06:14:07;;;;;;;1.48;1.38;;;;;;;;;;4994394;28;20113;-38
2023/01/13 06:16:32;;;;;;;1.23;1.13;;;;;;;;;;4993969;28;20058;-38
2023/01/13 06:18:57;;;;;;;2.40;0.80;;;;;;;;;;4992809;28;20042;-39
2023/01/13 06:21:23;;;;;;;2.92;1.13;;;;;;;;;;4993972;28;20042;-39
2023/01/13 06:23:48;;;;;;;2.17;1.10;;;;;;;;;;4993840;28;20121;-39
2023/01/13 06:26:18;;;;;;;1.75;0.80;;;;;;;;;;4994274;28;20027;-39
2023/01/13 06:28:44;;;;;;;1.45;0.65;;;;;;;;;;4993856;28;20089;-38
2023/01/13 06:31:10;;;;;;;4.65;2.47;;;;;;;;;;4994151;28;20034;-38
2023/01/13 06:33:37;;;;;;;9.73;2.50;;;;;;;;;;4993529;28;20059;-39
2023/01/13 06:36:05;;;;;;;3.78;1.85;;;;;;;;;;4993706;28;20022;-38
2023/01/13 06:38:33;;;;;;;4.53;2.08;;;;;;;;;;4993587;28;20412;-39
2023/01/13 06:40:59;;;;;;;1.92;1.80;;;;;;;;;;4993666;28;20370;-39
2023/01/13 06:43:24;;;;;;;1.23;1.10;;;;;;;;;;4993729;28;20046;-39
2023/01/13 06:45:51;;;;;;;1.83;1.35;;;;;;;;;;4993414;28;20046;-38
2023/01/13 06:48:17;;;;;;;2.97;1.60;;;;;;;;;;4992212;28;20038;-39
2023/01/13 06:50:43;;;;;;;6.10;1.45;;;;;;;;;;4993436;28;20037;-39
2023/01/13 06:53:09;;;;;;;3.45;2.33;;;;;;;;;;4993223;28;20054;-39
2023/01/13 06:55:34;;;;;;;3.58;2.20;;;;;;;;;;4993297;28;20416;-39
2023/01/13 06:58:00;;;;;;;7.47;2.58;;;;;;;;;;4993535;28;20042;-39
2023/01/13 07:00:26;;;;;;;5.53;2.30;;;;;;;;;;4993442;28;20408;-39
2023/01/13 07:02:51;;;;;;;3.67;1.90;;;;;;;;;;4993489;28;20145;-39
2023/01/13 07:05:17;;;;;;;3.80;1.35;;;;;;;;;;4993369;28;20384;-39
2023/01/13 07:07:42;;;;;;;8.10;3.72;;;;;;;;;;4993421;28;20030;-39
2023/01/13 07:10:11;;;;;;;3.17;1.63;;;;;;;;;;4993107;28;20373;-39
2023/01/13 07:15:17;;;;;;;6.00;3.13;;;;;;;;;;4992804;28;20408;-40
2023/01/13 07:15:23;;;;;;;8.18;2.15;;;;;;;;;;4992917;28;20113;-38
2023/01/13 07:17:49;;;;;;;4.43;2.45;;;;;;;;;;4992994;28;20146;-39
2023/01/13 07:20:15;;;;;;;3.75;2.03;;;;;;;;;;4992837;28;20026;-39
2023/01/13 07:22:40;;;;;;;3.83;1.75;;;;;;;;;;4992981;28;20050;-38
2023/01/13 07:25:06;;;;;;;2.38;1.63;;;;;;;;;;4992858;28;20510;-39
2023/01/13 07:27:31;;;;;;;1.25;1.10;;;;;;;;;;4992930;28;20140;-39
2023/01/13 07:29:57;;;;;;;2.42;1.13;;;;;;;;;;4992810;28;20027;-39
2023/01/13 07:32:22;;;;;;;1.35;1.25;;;;;;;;;;4992728;28;20070;-38
2023/01/13 07:34:48;;;;;;;2.92;1.08;;;;;;;;;;4992945;28;20030;-40
2023/01/13 07:37:13;;;;;;;2.83;1.80;;;;;;;;;;4992664;28;20100;-38
2023/01/13 07:39:38;;;;;;;1.08;1.08;;;;;;;;;;4991552;28;20031;-41
2023/01/13 07:44:48;;;;;;;2.72;1.45;;;;;;;;;;4992432;28;20050;-41
2023/01/13 07:47:14;;;;;;;2.95;1.80;;;;;;;;;;4992732;28;20486;-43
2023/01/13 07:49:39;;;;;;;4.20;1.10;;;;;;;;;;4992536;28;20453;-41
2023/01/13 07:52:05;;;;;;;3.55;1.80;;;;;;;;;;4992621;28;20473;-39
2023/01/13 07:54:30;;;;;;;1.88;1.65;;;;;;;;;;4992301;28;20465;-38
2023/01/13 07:56:55;;;;;;;3.97;1.65;;;;;;;;;;4992625;28;20030;-39
2023/01/13 07:59:21;;;;;;;3.78;2.22;;;;;;;;;;4992188;28;20030;-41
2023/01/13 08:01:46;;;;;;;6.03;2.17;;;;;;;;;;4992450;28;20034;-41
2023/01/13 08:04:12;;;;;;;3.35;1.42;;;;;;;;;;4992310;28;20054;-41
2023/01/13 08:06:38;;;;;;;6.13;1.80;;;;;;;;;;4992312;28;20026;-41
2023/01/13 08:09:04;;;;;;;2.83;1.92;;;;;;;;;;4992124;28;20081;-39
2023/01/13 08:11:29;;;;;;;4.15;2.45;;;;;;;;;;4991608;28;20029;-38
2023/01/13 08:13:56;;;;;;;5.10;2.38;;;;;;;;;;4991993;28;20073;-39
2023/01/13 08:16:22;;;;;;;9.48;3.92;;;;;;;;;;4991889;28;20022;-38
2023/01/13 08:18:48;;;;;;;3.53;1.92;;;;;;;;;;4992093;28;20043;-40
2023/01/13 08:21:13;;;;;;;2.67;2.03;;;;;;;;;;4992050;28;20022;-39
2023/01/13 08:23:40;;;;;;;6.28;2.83;;;;;;;;;;4992007;28;20033;-39
2023/01/13 08:26:07;;;;;;;6.90;3.15;;;;;;;;;;4992096;28;20023;-38
2023/01/13 08:28:32;;;;;;;6.03;3.58;;;;;;;;;;4991913;28;20034;-39
2023/01/13 08:31:02;;;;;;;5.43;2.47;;;;;;;;;;4992528;28;20026;-39
2023/01/13 08:33:28;;;;;;;4.07;2.65;;;;;;;;;;4991610;28;20054;-39
2023/01/13 08:35:53;;;;;;;4.53;2.28;;;;;;;;;;4991990;28;20029;-38
2023/01/13 08:38:19;;;;;;;4.55;2.40;;;;;;;;;;4991877;28;20062;-39
2023/01/13 08:40:45;;;;;;;2.28;2.08;;;;;;;;;;4991840;28;20050;-38
2023/01/13 08:43:10;;;;;;;4.75;2.17;;;;;;;;;;4992099;28;20034;-38
2023/01/13 08:45:35;;;;;;;3.22;1.70;;;;;;;;;;4991514;28;20050;-38
2023/01/13 08:48:02;;;;;;;3.05;2.10;;;;;;;;;;4991765;28;20030;-39
2023/01/13 08:50:27;;;;;;;1.80;1.40;;;;;;;;;;4991727;28;20026;-39
2023/01/13 08:52:52;;;;;;;2.75;2.05;;;;;;;;;;4991614;28;20045;-39
2023/01/13 08:55:18;;;;;;;4.53;2.25;;;;;;;;;;4992055;28;20033;-39
2023/01/13 08:57:44;;;;;;;3.72;1.98;;;;;;;;;;4991822;28;20473;-39
2023/01/13 09:00:10;;;;;;;5.55;2.42;;;;;;;;;;4991654;28;20018;-38
2023/01/13 09:02:37;;;;;;;4.93;2.42;;;;;;;;;;4991845;28;20035;-39
2023/01/13 09:05:05;;;;;;;3.45;1.70;;;;;;;;;;4991941;28;20035;-39
2023/01/13 09:07:31;;;;;;;3.63;2.47;;;;;;;;;;4991788;28;20030;-38
2023/01/13 09:09:57;;;;;;;2.50;1.80;;;;;;;;;;4991972;28;20029;-39
2023/01/13 09:15:07;;;;;;;4.20;2.22;;;;;;;;;;4991525;28;20038;-39
2023/01/13 09:17:33;;;;;;;4.80;1.88;;;;;;;;;;4991427;28;20026;-39
2023/01/13 09:19:59;;;;;;;4.53;2.00;;;;;;;;;;4991517;28;20034;-39
2023/01/13 09:22:26;;;;;;;5.88;2.50;;;;;;;;;;4991666;28;20401;-39
2023/01/13 09:24:52;;;;;;;4.90;2.53;;;;;;;;;;4993790;28;20037;-39
2023/01/13 09:27:17;;;;;;;3.95;2.28;;;;;;;;;;4994930;28;20078;-39
2023/01/13 09:29:43;;;;;;;2.92;2.28;;;;;;;;;;4995184;28;20086;-39
2023/01/13 09:32:13;;;;;;;8.63;2.70;;;;;;;;;;4994886;28;20713;-38
2023/01/13 09:37:22;;;;;;;5.95;2.33;;;;;;;;;;4994853;28;20034;-39
2023/01/13 09:39:48;;;;;;;2.67;1.85;;;;;;;;;;4994803;28;20026;-39
2023/01/13 09:45:19;;;;;;;2.13;1.30;;;;;;;;;;4994608;28;20046;-39
2023/01/13 09:47:50;;;;;;;1.38;1.10;;;;;;;;;;4994631;28;20036;-39
2023/01/13 09:50:16;;;;;;;2.13;1.92;;;;;;;;;;4994580;28;20068;-39
2023/01/13 09:52:42;;;;;;;2.40;1.25;;;;;;;;;;4994635;28;20042;-39
2023/01/13 09:55:14;;;;;;;1.98;1.40;;;;;;;;;;4994793;28;20034;-38
2023/01/13 09:57:39;;;;;;;1.33;1.23;;;;;;;;;;4994380;28;20026;-39
2023/01/13 10:00:10;;;;;;;1.60;1.45;;;;;;;;;;4994512;28;20010;-39
2023/01/13 10:02:39;;;;;;;4.57;0.88;;;;;;;;;;4994267;28;20427;-39
2023/01/13 10:05:25;;;;;;;2.22;1.20;;;;;;;;;;4994417;28;20030;-38
2023/01/13 10:07:57;;;;;;;4.28;1.92;;;;;;;;;;4994002;28;20034;-38
2023/01/13 10:10:41;;;;;;;1.83;1.20;;;;;;;;;;4994430;28;20150;-39
2023/01/13 10:13:14;;;;;;;2.13;1.58;;;;;;;;;;4994374;28;20038;-39
2023/01/13 10:15:40;;;;;;;;;;;;;;;;;;4994518;28;20034;-39
2023/01/13 10:18:12;;;;;;;2.80;1.92;;;;;;;;;;4994162;28;20024;-40
2023/01/13 10:20:38;;;;;;;;;;;;;;;;;;4994672;28;20414;-39
2023/01/13 10:23:27;;;;;;;2.58;2.05;;;;;;;;;;4994034;28;19912;-39
2023/01/13 10:26:11;;;;;;;2.45;1.00;;;;;;;;;;4994250;28;20035;-39
2023/01/13 10:28:36;;;;;;;3.17;2.00;;;;;;;;;;4993887;28;20035;-38
2023/01/13 10:31:04;;;;;;;2.42;1.40;;;;;;;;;;4993836;28;20032;-38
2023/01/13 10:33:29;;;;;;;6.00;2.25;;;;;;;;;;4993631;28;20077;-39
2023/01/13 10:36:04;;;;;;;1.52;1.25;;;;;;;;;;4993684;28;20030;-39
2023/01/13 10:38:33;;;;;;;2.60;1.63;;;;;;;;;;4993841;28;20109;-39
2023/01/13 10:41:19;;;;;;;7.45;1.90;;;;;;;;;;4993681;28;20041;-39
2023/01/13 10:43:56;;;;;;;1.98;1.42;;;;;;;;;;4993155;28;20038;-39
2023/01/13 10:46:22;;;;;;;3.50;1.60;;;;;;;;;;4993522;28;20049;-39
2023/01/13 10:48:51;;;;;;;7.32;2.25;;;;;;;;;;4993612;28;20397;-39
2023/01/13 10:51:19;;;;;;;2.63;1.75;;;;;;;;;;4993751;28;20125;-38
2023/01/13 10:53:48;;;;;;;3.88;1.90;;;;;;;;;;4993151;28;20030;-38
2023/01/13 10:56:18;;;;;;;6.38;1.73;;;;;;;;;;4993606;28;20027;-38
2023/01/13 10:58:44;;;;;;;2.90;1.70;;;;;;;;;;4992024;28;20026;-39
2023/01/13 11:01:17;;;;;;;4.97;1.95;;;;;;;;;;4993272;28;20389;-39
2023/01/13 11:03:44;;;;;;;;;;;;;;;;;;4992302;28;20035;-39
2023/01/13 11:06:18;;;;;;;4.88;2.05;;;;;;;;;;4993437;28;20056;-39
2023/01/13 11:08:44;;;;;;;2.13;1.27;;;;;;;;;;4993632;28;20126;-40
2023/01/13 11:11:28;;;;;;;3.80;2.42;;;;;;;;;;4993125;28;20373;-39
2023/01/13 11:16:41;;;;;;;4.53;1.95;;;;;;;;;;4992982;28;20080;-39
2023/01/13 11:19:13;;;;;;;5.65;2.15;;;;;;;;;;4991696;28;20030;-40
2023/01/13 11:21:38;;;;;;;5.07;2.95;;;;;;;;;;4992692;28;20061;-39
2023/01/13 11:24:35;;;;;;;4.40;2.85;;;;;;;;;;4992912;28;20060;-39
2023/01/13 11:27:04;;;;;;;9.07;1.70;;;;;;;;;;4980761;28;20042;-39
2023/01/13 11:29:35;;;;;;;3.05;1.60;;;;;;;;;;4992672;28;20017;-39
2023/01/13 11:32:20;;;;;;;4.55;2.03;;;;;;;;;;4992926;28;20038;-39
2023/01/13 11:34:51;;;;;;;5.03;2.60;;;;;;;;;;4992907;28;20069;-39
2023/01/13 11:37:22;;;;;;;6.88;1.88;;;;;;;;;;4992960;28;20073;-39
2023/01/13 11:39:55;;;;;;;3.40;2.10;;;;;;;;;;4993172;28;20069;-39
2023/01/13 11:42:25;;;;;;;3.20;2.03;;;;;;;;;;4992798;28;20484;-39
2023/01/13 11:44:51;;;;;;;3.83;1.77;;;;;;;;;;4992383;28;20051;-38
2023/01/13 11:47:20;;;;;;;6.70;2.67;;;;;;;;;;4990627;28;20034;-39
2023/01/13 11:49:47;;;;;;;3.95;2.45;;;;;;;;;;4992387;28;20030;-39
2023/01/13 11:52:28;;;;;;;3.75;1.55;;;;;;;;;;4992264;28;20116;-39
2023/01/13 11:55:09;;;;;;;3.70;2.00;;;;;;;;;;4992351;28;20038;-39
2023/01/13 11:57:52;;;;;;;4.88;2.50;;;;;;;;;;4992233;28;20041;-39
2023/01/13 12:00:44;;;;;;;4.35;2.50;;;;;;;;;;4992288;28;20092;-39
2023/01/13 12:03:12;;;;;;;3.40;2.15;;;;;;;;;;4969496;28;20097;-39
2023/01/13 12:05:58;;;;;;;3.72;1.90;;;;;;;;;;4992191;28;20018;-39
2023/01/13 12:08:46;;;;;;;2.50;1.58;;;;;;;;;;4992443;28;20042;-39
2023/01/13 12:11:18;;;;;;;5.78;2.30;;;;;;;;;;4984261;28;20050;-39
2023/01/13 12:13:55;;;;;;;3.95;2.20;;;;;;;;;;4991999;28;20069;-38
2023/01/13 12:16:30;;;;;;;4.57;2.30;;;;;;;;;;4992079;28;20035;-39
2023/01/13 12:19:01;;;;;;;3.90;2.20;;;;;;;;;;4992085;28;20030;-39
2023/01/13 12:21:37;;;;;;;3.30;1.63;;;;;;;;;;4991958;28;20058;-38
2023/01/13 12:24:17;;;;;;;2.75;1.73;;;;;;;;;;4992310;28;20038;-39
2023/01/13 12:27:03;;;;;;;4.30;1.98;;;;;;;;;;4991942;28;20053;-38
2023/01/13 12:29:33;;;;;;;4.18;1.70;;;;;;;;;;4991688;28;20038;-39
2023/01/13 12:32:01;;;;;;;3.85;2.05;;;;;;;;;;4992069;28;20041;-39
2023/01/13 12:34:45;;;;;;;3.67;1.80;;;;;;;;;;4992117;28;20161;-39
2023/01/13 12:37:13;;;;;;;2.97;1.75;;;;;;;;;;4991889;28;20482;-39
2023/01/13 12:39:42;;;;;;;2.72;1.70;;;;;;;;;;4991805;28;20026;-38
2023/01/13 12:45:10;;;;;;;4.00;2.08;;;;;;;;;;4991851;28;20046;-39
2023/01/13 12:47:37;;;;;;;3.47;1.35;;;;;;;;;;4991991;28;20113;-39
2023/01/13 12:50:21;;;;;;;3.70;1.52;;;;;;;;;;4992170;28;20026;-39
2023/01/13 12:52:47;;;;;;;2.03;1.83;;;;;;;;;;4991881;28;20046;-38
2023/01/13 12:55:18;;;;;;;3.08;1.75;;;;;;;;;;4991808;28;20420;-38
2023/01/13 12:58:12;;;;;;;3.63;2.05;;;;;;;;;;4992663;28;20038;-38
2023/01/13 13:00:40;;;;;;;3.33;1.50;;;;;;;;;;4995828;28;20034;-39
2023/01/13 13:03:15;;;;;;;4.53;1.88;;;;;;;;;;4996029;28;20018;-39
2023/01/13 13:05:41;;;;;;;3.20;1.80;;;;;;;;;;4995378;28;20124;-38
2023/01/13 13:08:19;;;;;;;4.22;2.30;;;;;;;;;;4995385;28;20123;-39
2023/01/13 13:11:03;;;;;;;6.93;2.45;;;;;;;;;;4995229;28;20396;-38
2023/01/13 13:13:41;;;;;;;4.13;2.40;;;;;;;;;;4995410;28;20046;-38
2023/01/13 13:16:24;;;;;;;6.78;1.73;;;;;;;;;;4995277;28;20026;-41
2023/01/13 13:18:50;;;;;;;3.17;2.75;;;;;;;;;;4995503;28;20453;-41
2023/01/13 13:21:16;;;;;;;4.10;1.58;;;;;;;;;;4995123;28;20184;-41
2023/01/13 13:23:46;;;;;;;2.10;1.30;;;;;;;;;;4995342;28;20076;-39
2023/01/13 13:26:22;;;;;;;5.75;1.63;;;;;;;;;;4995044;28;20031;-39
2023/01/13 13:29:06;;;;;;;2.22;1.40;;;;;;;;;;4995300;28;20034;-39
2023/01/13 13:31:31;;;;;;;5.30;2.13;;;;;;;;;;4994680;28;20022;-41
2023/01/13 13:34:07;;;;;;;3.17;1.98;;;;;;;;;;4994405;28;20035;-41
2023/01/13 13:36:38;;;;;;;2.72;1.95;;;;;;;;;;4994732;28;20037;-41
2023/01/13 13:47:37;;;;;;;4.35;2.38;;;;;;;;;;4994695;28;20031;-41
2023/01/13 13:50:11;;;;;;;5.57;2.58;;;;;;;;;;4994814;28;20031;-39
2023/01/13 13:52:38;;;;;;;2.70;1.55;;;;;;;;;;4994408;28;20062;-38
2023/01/13 13:55:23;;;;;;;4.95;2.45;;;;;;;;;;4994853;28;20026;-39
2023/01/13 13:57:49;;;;;;;2.55;2.17;;;;;;;;;;4994507;28;20114;-43
2023/01/13 14:00:17;;;;;;;2.55;1.58;;;;;;;;;;4994765;28;20026;-38
2023/01/13 14:02:51;;;;;;;4.90;2.67;;;;;;;;;;4994370;28;20073;-39
2023/01/13 14:05:16;;;;;;;3.40;1.70;;;;;;;;;;4994353;28;20041;-38
2023/01/13 14:07:46;;;;;;;2.47;1.85;;;;;;;;;;4994291;28;20018;-38
2023/01/13 14:10:15;;;;;;;1.77;1.30;;;;;;;;;;4993592;28;20034;-38
2023/01/13 14:12:41;;;;;;;3.65;1.95;;;;;;;;;;4992687;28;20041;-47
2023/01/13 14:15:22;;;;;;;1.42;1.33;;;;;;;;;;4992930;28;20035;-41
2023/01/13 14:17:48;;;;;;;5.25;2.00;;;;;;;;;;4994430;28;20377;-38
2023/01/13 14:20:16;;;;;;;4.55;1.65;;;;;;;;;;4994052;28;20033;-39
2023/01/13 14:22:45;;;;;;;1.10;1.00;;;;;;;;;;4993904;28;20081;-39
2023/01/13 14:25:38;;;;;;;2.03;1.88;;;;;;;;;;4994243;28;20037;-39
2023/01/13 14:28:12;;;;;;;2.80;1.38;;;;;;;;;;4991651;28;20046;-39
2023/01/13 14:30:38;;;;;;;1.80;1.27;;;;;;;;;;4993911;28;20062;-39
2023/01/13 14:33:04;;;;;;;2.25;0.88;;;;;;;;;;4993706;28;20523;-39
2023/01/13 14:35:30;;;;;;;1.00;0.93;;;;;;;;;;4993757;28;20041;-39
2023/01/13 14:38:01;;;;;;;1.10;0.68;;;;;;;;;;4993762;28;20392;-39
2023/01/13 14:40:37;;;;;;;2.10;1.38;;;;;;;;;;4993924;28;20026;-39
2023/01/13 14:43:03;;;;;;;1.95;1.35;;;;;;;;;;4993907;28;20034;-39
2023/01/13 14:45:31;;;;;;;1.95;0.85;;;;;;;;;;4993473;28;20547;-39
2023/01/13 14:47:59;;;;;;;0.88;0.85;;;;;;;;;;4993634;28;20030;-39
2023/01/13 14:50:30;;;;;;;1.60;0.60;;;;;;;;;;4992220;28;20057;-39
2023/01/13 14:52:56;;;;;;;0.50;0.50;;;;;;;;;;4993583;28;20046;-39
2023/01/13 14:55:24;;;;;;;1.52;0.73;;;;;;;;;;4993482;28;20111;-39
2023/01/13 14:57:50;;;;;;;2.00;0.82;;;;;;;;;;4993631;28;20038;-39
2023/01/13 15:00:17;;;;;;;0.85;0.63;;;;;;;;;;4993426;28;20029;-39
2023/01/13 15:02:42;;;;;;;0.90;0.65;;;;;;;;;;4993122;28;20054;-39
2023/01/13 15:05:17;;;;;;;0.80;0.68;;;;;;;;;;4991965;28;20147;-39
2023/01/13 15:07:52;;;;;;;0.63;0.60;;;;;;;;;;4993085;28;20034;-39
2023/01/13 15:10:19;;;;;;;4.88;1.40;;;;;;;;;;4993182;28;20026;-39
2023/01/13 15:12:45;;;;;;;0.90;0.82;;;;;;;;;;4993209;28;20413;-39
2023/01/13 15:15:29;;;;;;;2.45;1.00;;;;;;;;;;4993310;28;20085;-39
2023/01/13 15:17:55;;;;;;;2.20;0.57;;;;;;;;;;4991783;28;20507;-38
2023/01/13 15:20:22;;;;;;;2.45;0.98;;;;;;;;;;4993203;28;20062;-38
2023/01/13 15:22:49;;;;;;;0.82;0.82;;;;;;;;;;4991827;28;20577;-39
2023/01/13 15:25:15;;;;;;;1.35;0.90;;;;;;;;;;4991622;28;20072;-39
2023/01/13 15:27:45;;;;;;;3.88;0.75;;;;;;;;;;4992802;28;20518;-40
2023/01/13 15:30:15;;;;;;;0.60;0.60;;;;;;;;;;4992776;28;20033;-39
2023/01/13 15:32:41;;;;;;;0.55;0.55;;;;;;;;;;4992518;28;20038;-39
2023/01/13 15:35:08;;;;;;;0.73;0.73;;;;;;;;;;4992750;28;20772;-39
2023/01/13 15:37:34;;;;;;;1.20;1.00;;;;;;;;;;4992611;28;20038;-39
2023/01/13 15:40:00;;;;;;;0.85;0.63;;;;;;;;;;4992948;28;20064;-38
2023/01/13 15:47:58;;;;;;;1.52;0.70;;;;;;;;;;4992569;28;20069;-41
2023/01/13 15:50:24;;;;;;;0.57;0.57;;;;;;;;;;4992767;28;20092;-41